Time,TemperatureF,DewpointF,PressureIn,WindDirection,WindDirectionDegrees,WindSpeedMPH,WindSpeedGustMPH,Humidity,HourlyPrecipIn,Conditions,Clouds,dailyrainin,SoftwareType,DateUTC
2013-03-09 00:00:00,36.2,32.7,0.00,NW,312,9.1,9.1,87,0.00,CLR,CLR,0.00,WeatherDisplay:10.37,2013-03-09 05:00:00,
2013-03-09 00:05:00,36.2,33.0,0.00,NNW,333,6.9,6.9,88,0.00,CLR,CLR,0.00,WeatherDisplay:10.37,2013-03-09 05:05:00,
2013-03-09 00:10:00,36.2,32.7,0.00,North,0,9.2,9.2,87,0.00,CLR,CLR,0.00,WeatherDisplay:10.37,2013-03-09 05:10:00,
2013-03-09 00:15:00,36.1,32.6,0.00,NNW,339,5.0,9.0,87,0.00,CLR,CLR,0.00,WeatherDisplay:10.37,2013-03-09 05:15:00,
2013-03-09 00:20:00,36.1,32.6,0.00,NNE,20,5.8,5.8,87,0.00,CLR,CLR,0.00,WeatherDisplay:10.37,2013-03-09 05:20:00,
2013-03-09 00:26:00,36.1,32.6,0.00,North,6,5.8,5.8,87,0.00,CLR,CLR,0.00,WeatherDisplay:10.37,2013-03-09 05:26:00,
2013-03-09 00:31:00,36.0,32.5,0.00,North,357,8.1,8.1,87,0.00,CLR,CLR,0.00,WeatherDisplay:10.37,2013-03-09 05:31:00,
2013-03-09 00:36:00,36.0,32.5,0.00,NW,305,8.1,8.1,87,0.00,CLR,CLR,0.00,WeatherDisplay:10.37,2013-03-09 05:36:00,
2013-03-09 00:41:00,36.0,32.5,0.00,North,3,8.1,8.1,87,0.00,CLR,CLR,0.00,WeatherDisplay:10.37,2013-03-09 05:41:00,
2013-03-09 00:46:00,35.9,32.4,0.00,NNW,342,5.8,5.8,87,0.00,CLR,CLR,0.00,WeatherDisplay:10.37,2013-03-09 05:46:00,
2013-03-09 00:51:00,35.9,32.4,0.00,NE,49,8.1,8.1,87,0.00,CLR,CLR,0.00,WeatherDisplay:10.37,2013-03-09 05:51:00,
2013-03-09 00:56:00,35.9,32.1,0.00,North,0,9.2,9.2,86,0.00,CLR,CLR,0.00,WeatherDisplay:10.37,2013-03-09 05:56:00,
2013-03-09 01:01:00,35.9,32.1,0.00,NNE,27,8.1,8.1,86,0.00,CLR,CLR,0.00,WeatherDisplay:10.37,2013-03-09 06:01:00,
2013-03-09 01:07:00,35.9,32.1,0.00,North,4,9.2,9.2,86,0.00,CLR,CLR,0.00,WeatherDisplay:10.37,2013-03-09 06:07:00,
2013-03-09 01:12:00,35.9,32.1,0.00,NNE,20,8.1,8.1,86,0.00,CLR,CLR,0.00,WeatherDisplay:10.37,2013-03-09 06:12:00,
2013-03-09 01:17:00,35.9,32.1,0.00,NNE,25,9.2,9.2,86,0.00,CLR,CLR,0.00,WeatherDisplay:10.37,2013-03-09 06:17:00,
2013-03-09 01:22:00,35.8,31.7,0.00,North,353,9.2,9.2,85,0.00,CLR,CLR,0.00,WeatherDisplay:10.37,2013-03-09 06:22:00,
2013-03-09 01:27:00,35.8,31.7,0.00,NNW,339,6.9,6.9,85,0.00,CLR,CLR,0.00,WeatherDisplay:10.37,2013-03-09 06:27:00,
2013-03-09 01:32:00,35.8,31.7,0.00,NE,44,6.9,6.9,85,0.00,CLR,CLR,0.00,WeatherDisplay:10.37,2013-03-09 06:32:00,
2013-03-09 01:37:00,35.7,31.9,0.00,NNE,30,9.2,9.2,86,0.00,CLR,CLR,0.00,WeatherDisplay:10.37,2013-03-09 06:37:00,
2013-03-09 01:43:00,35.7,31.6,0.00,NW,325,10.4,10.4,85,0.00,CLR,CLR,0.00,WeatherDisplay:10.37,2013-03-09 06:43:00,
2013-03-09 01:48:00,35.6,31.5,0.00,North,10,9.2,9.2,85,0.00,CLR,CLR,0.00,WeatherDisplay:10.37,2013-03-09 06:48:00,
2013-03-09 01:53:00,35.7,31.6,0.00,NNW,346,6.9,6.9,85,0.00,CLR,CLR,0.00,WeatherDisplay:10.37,2013-03-09 06:53:00,
2013-03-09 01:58:00,35.6,31.5,0.00,NW,323,8.1,8.1,85,0.00,CLR,CLR,0.00,WeatherDisplay:10.37,2013-03-09 06:58:00,
2013-03-09 02:03:00,35.6,31.5,0.00,NW,326,5.8,5.8,85,0.00,CLR,CLR,0.00,WeatherDisplay:10.37,2013-03-09 07:03:00,
2013-03-09 02:08:00,35.5,31.4,0.00,NE,41,6.9,6.9,85,0.00,CLR,CLR,0.00,WeatherDisplay:10.37,2013-03-09 07:08:00,
2013-03-09 02:13:00,35.5,31.4,0.00,NE,35,6.9,6.9,85,0.00,CLR,CLR,0.00,WeatherDisplay:10.37,2013-03-09 07:13:00,
2013-03-09 02:18:00,35.5,31.4,0.00,North,350,5.8,5.8,85,0.00,CLR,CLR,0.00,WeatherDisplay:10.37,2013-03-09 07:18:00,
2013-03-09 02:23:00,35.5,31.4,0.00,North,360,6.9,6.9,85,0.00,CLR,CLR,0.00,WeatherDisplay:10.37,2013-03-09 07:23:00,
2013-03-09 02:29:00,35.4,31.3,0.00,NNW,343,6.9,6.9,85,0.00,CLR,CLR,0.00,WeatherDisplay:10.37,2013-03-09 07:29:00,
2013-03-09 02:34:00,35.4,31.0,0.00,NNW,337,6.9,6.9,84,0.00,CLR,CLR,0.00,WeatherDisplay:10.37,2013-03-09 07:34:00,
2013-03-09 02:39:00,35.4,31.0,0.00,North,357,6.9,6.9,84,0.00,CLR,CLR,0.00,WeatherDisplay:10.37,2013-03-09 07:39:00,
2013-03-09 02:44:00,35.3,31.2,0.00,NNE,20,6.9,6.9,85,0.00,CLR,CLR,0.00,WeatherDisplay:10.37,2013-03-09 07:44:00,
2013-03-09 02:49:00,35.3,30.9,0.00,North,360,6.9,6.9,84,0.00,CLR,CLR,0.00,WeatherDisplay:10.37,2013-03-09 07:49:00,
2013-03-09 02:54:00,35.3,30.9,0.00,North,360,6.9,6.9,84,0.00,CLR,CLR,0.00,WeatherDisplay:10.37,2013-03-09 07:54:00,
2013-03-09 02:59:00,35.2,30.9,0.00,NE,48,5.8,5.8,84,0.00,CLR,CLR,0.00,WeatherDisplay:10.37,2013-03-09 07:59:00,
2013-03-09 03:05:00,35.2,30.9,0.00,NNW,333,6.9,6.9,84,0.00,CLR,CLR,0.00,WeatherDisplay:10.37,2013-03-09 08:05:00,
2013-03-09 03:10:00,35.1,31.0,0.00,NNE,30,4.6,4.6,85,0.00,CLR,CLR,0.00,WeatherDisplay:10.37,2013-03-09 08:10:00,
2013-03-09 03:15:00,35.1,31.0,0.00,NNW,337,5.8,5.8,85,0.00,CLR,CLR,0.00,WeatherDisplay:10.37,2013-03-09 08:15:00,
2013-03-09 03:20:00,35.0,30.9,0.00,North,7,8.8,8.8,85,0.00,CLR,CLR,0.00,WeatherDisplay:10.37,2013-03-09 08:20:00,
2013-03-09 03:25:00,35.0,30.9,0.00,North,359,4.8,4.8,85,0.00,CLR,CLR,0.00,WeatherDisplay:10.37,2013-03-09 08:25:00,
2013-03-09 03:30:00,34.9,30.8,0.00,NE,44,6.5,6.5,85,0.00,CLR,CLR,0.00,WeatherDisplay:10.37,2013-03-09 08:30:00,
2013-03-09 03:35:00,34.9,30.8,0.00,North,10,6.9,6.9,85,0.00,CLR,CLR,0.00,WeatherDisplay:10.37,2013-03-09 08:35:00,
2013-03-09 03:40:00,34.9,30.6,0.00,NNE,18,5.8,5.8,84,0.00,CLR,CLR,0.00,WeatherDisplay:10.37,2013-03-09 08:40:00,
2013-03-09 03:46:00,34.9,30.6,0.00,North,7,8.1,8.1,84,0.00,CLR,CLR,0.00,WeatherDisplay:10.37,2013-03-09 08:46:00,
2013-03-09 03:51:00,34.8,30.5,0.00,North,349,5.8,5.8,84,0.00,CLR,CLR,0.00,WeatherDisplay:10.37,2013-03-09 08:51:00,
2013-03-09 03:56:00,34.8,30.5,0.00,NNW,344,5.8,5.8,84,0.00,CLR,CLR,0.00,WeatherDisplay:10.37,2013-03-09 08:56:00,
2013-03-09 04:01:00,34.7,30.4,0.00,NNE,25,5.8,5.8,84,0.00,CLR,CLR,0.00,WeatherDisplay:10.37,2013-03-09 09:01:00,
2013-03-09 04:06:00,34.6,30.6,0.00,North,4,4.6,4.6,85,0.00,CLR,CLR,0.00,WeatherDisplay:10.37,2013-03-09 09:06:00,
2013-03-09 04:11:00,34.6,30.6,0.00,WNW,299,5.8,5.8,85,0.00,CLR,CLR,0.00,WeatherDisplay:10.37,2013-03-09 09:11:00,
2013-03-09 04:17:00,34.4,30.4,0.00,NNW,335,5.8,5.8,85,0.00,CLR,CLR,0.00,WeatherDisplay:10.37,2013-03-09 09:17:00,
2013-03-09 04:22:00,34.4,30.4,0.00,North,353,4.6,4.6,85,0.00,CLR,CLR,0.00,WeatherDisplay:10.37,2013-03-09 09:22:00,
2013-03-09 04:27:00,34.3,30.3,0.00,NNW,336,4.6,4.6,85,0.00,CLR,CLR,0.00,WeatherDisplay:10.37,2013-03-09 09:27:00,
2013-03-09 04:32:00,34.3,30.5,0.00,North,3,4.7,4.7,86,0.00,CLR,CLR,0.00,WeatherDisplay:10.37,2013-03-09 09:32:00,
2013-03-09 04:37:00,34.2,30.4,0.00,NNW,329,8.1,8.1,86,0.00,CLR,CLR,0.00,WeatherDisplay:10.37,2013-03-09 09:37:00,
2013-03-09 04:42:00,34.2,30.4,0.00,NNE,25,6.9,6.9,86,0.00,CLR,CLR,0.00,WeatherDisplay:10.37,2013-03-09 09:42:00,
2013-03-09 04:47:00,34.2,30.4,0.00,North,10,5.8,5.8,86,0.00,CLR,CLR,0.00,WeatherDisplay:10.37,2013-03-09 09:47:00,
2013-03-09 04:52:00,34.1,30.4,0.00,NNE,17,5.8,5.8,86,0.00,CLR,CLR,0.00,WeatherDisplay:10.37,2013-03-09 09:52:00,
2013-03-09 04:57:00,34.1,30.4,0.00,NNW,347,6.9,6.9,86,0.00,CLR,CLR,0.00,WeatherDisplay:10.37,2013-03-09 09:57:00,
2013-03-09 05:03:00,34.0,30.3,0.00,NNE,16,6.9,6.9,86,0.00,CLR,CLR,0.00,WeatherDisplay:10.37,2013-03-09 10:03:00,
2013-03-09 05:08:00,34.0,30.3,0.00,North,0,7.1,7.1,86,0.00,CLR,CLR,0.00,WeatherDisplay:10.37,2013-03-09 10:08:00,
2013-03-09 05:13:00,33.9,30.2,0.00,East,79,10.4,10.4,86,0.00,CLR,CLR,0.00,WeatherDisplay:10.37,2013-03-09 10:13:00,
2013-03-09 05:18:00,33.9,30.2,0.00,North,3,10.4,10.4,86,0.00,CLR,CLR,0.00,WeatherDisplay:10.37,2013-03-09 10:18:00,
2013-03-09 05:23:00,33.9,29.9,0.00,ENE,59,8.1,8.1,85,0.00,CLR,CLR,0.00,WeatherDisplay:10.37,2013-03-09 10:23:00,
2013-03-09 05:28:00,33.9,29.9,0.00,NNE,32,9.2,9.2,85,0.00,CLR,CLR,0.00,WeatherDisplay:10.37,2013-03-09 10:28:00,
2013-03-09 05:34:00,33.9,29.9,0.00,NNW,336,9.6,9.6,85,0.00,CLR,CLR,0.00,WeatherDisplay:10.37,2013-03-09 10:34:00,
2013-03-09 05:39:00,34.0,29.7,0.00,NNE,13,11.5,11.5,84,0.00,CLR,CLR,0.00,WeatherDisplay:10.37,2013-03-09 10:39:00,
2013-03-09 05:44:00,34.0,29.7,0.00,North,0,12.7,12.7,84,0.00,CLR,CLR,0.00,WeatherDisplay:10.37,2013-03-09 10:44:00,
2013-03-09 05:49:00,33.9,29.6,0.00,NNE,27,10.4,10.4,84,0.00,CLR,CLR,0.00,WeatherDisplay:10.37,2013-03-09 10:49:00,
2013-03-09 05:54:00,33.9,29.6,0.00,NNE,27,9.2,9.2,84,0.00,CLR,CLR,0.00,WeatherDisplay:10.37,2013-03-09 10:54:00,
2013-03-09 05:59:00,33.9,29.6,0.00,North,360,9.2,9.2,84,0.00,CLR,CLR,0.00,WeatherDisplay:10.37,2013-03-09 10:59:00,
2013-03-09 06:04:00,33.8,29.5,0.00,North,8,8.1,8.1,84,0.00,CLR,CLR,0.00,WeatherDisplay:10.37,2013-03-09 11:04:00,
2013-03-09 06:09:00,33.8,29.8,0.00,NE,34,5.8,5.8,85,0.00,CLR,CLR,0.00,WeatherDisplay:10.37,2013-03-09 11:09:00,
2013-03-09 06:14:00,33.7,29.7,0.00,North,357,6.9,6.9,85,0.00,CLR,CLR,0.00,WeatherDisplay:10.37,2013-03-09 11:14:00,
2013-03-09 06:20:00,33.6,29.6,0.00,NNE,30,8.1,8.1,85,0.00,CLR,CLR,0.00,WeatherDisplay:10.37,2013-03-09 11:20:00,
2013-03-09 06:25:00,33.6,29.3,0.00,NE,37,6.9,6.9,84,0.00,CLR,CLR,0.00,WeatherDisplay:10.37,2013-03-09 11:25:00,
2013-03-09 06:30:00,33.5,29.2,0.00,NNE,32,6.9,6.9,84,0.00,CLR,CLR,0.00,WeatherDisplay:10.37,2013-03-09 11:30:00,
2013-03-09 06:35:00,33.5,29.2,0.00,North,349,8.1,8.1,84,0.00,CLR,CLR,0.00,WeatherDisplay:10.37,2013-03-09 11:35:00,
2013-03-09 06:40:00,33.5,29.5,0.00,NE,47,8.1,8.1,85,0.00,CLR,CLR,0.00,WeatherDisplay:10.37,2013-03-09 11:40:00,
2013-03-09 06:45:00,33.5,29.2,0.00,North,11,8.1,8.1,84,0.00,CLR,CLR,0.00,WeatherDisplay:10.37,2013-03-09 11:45:00,
2013-03-09 06:50:00,33.5,29.2,0.00,North,0,4.6,4.6,84,0.00,CLR,CLR,0.00,WeatherDisplay:10.37,2013-03-09 11:50:00,
2013-03-09 06:55:00,33.6,29.3,0.00,North,3,9.2,9.2,84,0.00,CLR,CLR,0.00,WeatherDisplay:10.37,2013-03-09 11:55:00,
2013-03-09 07:01:00,33.6,29.3,0.00,NNE,23,7.1,7.1,84,0.00,CLR,CLR,0.00,WeatherDisplay:10.37,2013-03-09 12:01:00,
2013-03-09 07:06:00,33.7,29.4,0.00,North,8,6.1,6.1,84,0.00,CLR,CLR,0.00,WeatherDisplay:10.37,2013-03-09 12:06:00,
2013-03-09 07:11:00,33.7,29.4,0.00,NNW,337,8.1,8.1,84,0.00,CLR,CLR,0.00,WeatherDisplay:10.37,2013-03-09 12:11:00,
2013-03-09 07:16:00,33.8,29.5,0.00,North,360,5.8,5.8,84,0.00,CLR,CLR,0.00,WeatherDisplay:10.37,2013-03-09 12:16:00,
2013-03-09 07:21:00,33.8,29.5,0.00,NE,47,10.4,10.4,84,0.00,CLR,CLR,0.00,WeatherDisplay:10.37,2013-03-09 12:21:00,
2013-03-09 07:26:00,34.0,29.4,0.00,East,85,8.1,8.1,83,0.00,CLR,CLR,0.00,WeatherDisplay:10.37,2013-03-09 12:26:00,
2013-03-09 07:31:00,34.0,29.7,0.00,North,6,5.8,5.8,84,0.00,CLR,CLR,0.00,WeatherDisplay:10.37,2013-03-09 12:31:00,
2013-03-09 07:37:00,34.0,29.7,0.00,NNE,18,6.0,6.0,84,0.00,CLR,CLR,0.00,WeatherDisplay:10.37,2013-03-09 12:37:00,
2013-03-09 07:42:00,34.1,29.5,0.00,North,10,8.1,8.1,83,0.00,CLR,CLR,0.00,WeatherDisplay:10.37,2013-03-09 12:42:00,
2013-03-09 07:47:00,34.2,29.6,0.00,ESE,117,9.2,9.2,83,0.00,CLR,CLR,0.00,WeatherDisplay:10.37,2013-03-09 12:47:00,
2013-03-09 07:52:00,34.2,29.6,0.00,ENE,71,8.1,8.1,83,0.00,CLR,CLR,0.00,WeatherDisplay:10.37,2013-03-09 12:52:00,
2013-03-09 07:57:00,34.4,29.8,0.00,NNE,13,8.1,8.1,83,0.00,CLR,CLR,0.00,WeatherDisplay:10.37,2013-03-09 12:57:00,
2013-03-09 08:02:00,34.4,29.8,0.00,NE,38,8.1,8.1,83,0.00,CLR,CLR,0.00,WeatherDisplay:10.37,2013-03-09 13:02:00,
2013-03-09 08:07:00,34.6,30.0,0.00,NNW,328,8.1,8.1,83,0.00,CLR,CLR,0.00,WeatherDisplay:10.37,2013-03-09 13:07:00,
2013-03-09 08:13:00,34.7,29.8,0.00,NE,42,10.4,10.4,82,0.00,CLR,CLR,0.00,WeatherDisplay:10.37,2013-03-09 13:13:00,
2013-03-09 08:18:00,34.9,30.0,0.00,NNE,17,11.5,11.5,82,0.00,CLR,CLR,0.00,WeatherDisplay:10.37,2013-03-09 13:18:00,
2013-03-09 08:23:00,35.0,30.1,0.00,NNE,14,5.8,5.8,82,0.00,CLR,CLR,0.00,WeatherDisplay:10.37,2013-03-09 13:23:00,
2013-03-09 08:28:00,35.1,29.9,0.00,NNE,28,10.4,10.4,81,0.00,CLR,CLR,0.00,WeatherDisplay:10.37,2013-03-09 13:28:00,
2013-03-09 08:33:00,35.2,30.0,0.00,ENE,59,6.9,6.9,81,0.00,CLR,CLR,0.00,WeatherDisplay:10.37,2013-03-09 13:33:00,
2013-03-09 08:38:00,35.2,30.0,0.00,ENE,75,10.9,10.9,81,0.00,CLR,CLR,0.00,WeatherDisplay:10.37,2013-03-09 13:38:00,
2013-03-09 08:43:00,35.4,29.8,0.00,ESE,110,10.4,10.4,80,0.00,CLR,CLR,0.00,WeatherDisplay:10.37,2013-03-09 13:43:00,
2013-03-09 08:48:00,35.5,29.9,0.00,ENE,76,13.8,13.8,80,0.00,CLR,CLR,0.00,WeatherDisplay:10.37,2013-03-09 13:48:00,
2013-03-09 08:54:00,35.6,30.0,0.00,NNE,20,9.2,9.2,80,0.00,CLR,CLR,0.00,WeatherDisplay:10.37,2013-03-09 13:54:00,
2013-03-09 08:59:00,35.6,29.7,0.00,NE,52,11.5,11.5,79,0.00,CLR,CLR,0.00,WeatherDisplay:10.37,2013-03-09 13:59:00,
2013-03-09 09:04:00,35.7,30.1,0.00,North,6,9.2,9.2,80,0.00,CLR,CLR,0.00,WeatherDisplay:10.37,2013-03-09 14:04:00,
2013-03-09 09:09:00,35.7,30.1,0.00,NE,35,11.5,11.5,80,0.00,CLR,CLR,0.00,WeatherDisplay:10.37,2013-03-09 14:09:00,
2013-03-09 09:14:00,35.9,30.0,0.00,NE,40,6.9,6.9,79,0.00,CLR,CLR,0.00,WeatherDisplay:10.37,2013-03-09 14:14:00,
2013-03-09 09:19:00,36.0,30.1,0.00,NNE,31,9.2,9.2,79,0.00,CLR,CLR,0.00,WeatherDisplay:10.37,2013-03-09 14:19:00,
2013-03-09 09:24:00,36.0,30.1,0.00,NNE,23,9.2,9.2,79,0.00,CLR,CLR,0.00,WeatherDisplay:10.37,2013-03-09 14:24:00,
2013-03-09 09:30:00,36.1,29.9,0.00,NNE,25,11.5,11.5,78,0.00,CLR,CLR,0.00,WeatherDisplay:10.37,2013-03-09 14:30:00,
2013-03-09 09:35:00,36.2,30.3,0.00,NNE,28,11.5,11.5,79,0.00,CLR,CLR,0.00,WeatherDisplay:10.37,2013-03-09 14:35:00,
2013-03-09 09:40:00,36.2,30.3,0.00,NE,55,4.7,4.7,79,0.00,CLR,CLR,0.00,WeatherDisplay:10.37,2013-03-09 14:40:00,
2013-03-09 09:45:00,36.3,30.4,0.00,NE,34,6.9,6.9,79,0.00,CLR,CLR,0.00,WeatherDisplay:10.37,2013-03-09 14:45:00,
2013-03-09 09:50:00,36.3,30.4,0.00,NNE,30,9.2,9.2,79,0.00,CLR,CLR,0.00,WeatherDisplay:10.37,2013-03-09 14:50:00,
2013-03-09 09:55:00,36.4,30.2,0.00,NNE,17,10.4,10.4,78,0.00,CLR,CLR,0.00,WeatherDisplay:10.37,2013-03-09 14:55:00,
2013-03-09 10:00:00,36.5,30.3,0.00,East,80,9.2,9.2,78,0.00,CLR,CLR,0.00,WeatherDisplay:10.37,2013-03-09 15:00:00,
2013-03-09 10:05:00,36.5,30.6,0.00,North,11,6.6,6.6,79,0.00,CLR,CLR,0.00,WeatherDisplay:10.37,2013-03-09 15:05:00,
2013-03-09 10:11:00,36.6,30.4,0.00,NNE,31,9.2,9.2,78,0.00,CLR,CLR,0.00,WeatherDisplay:10.37,2013-03-09 15:11:00,
2013-03-09 10:16:00,36.7,30.5,0.00,ENE,69,8.1,8.1,78,0.00,CLR,CLR,0.00,WeatherDisplay:10.37,2013-03-09 15:16:00,
2013-03-09 10:21:00,36.7,30.5,0.00,ENE,61,9.2,9.2,78,0.00,CLR,CLR,0.00,WeatherDisplay:10.37,2013-03-09 15:21:00,
2013-03-09 10:26:00,36.8,30.6,0.00,NE,38,8.1,8.1,78,0.00,CLR,CLR,0.00,WeatherDisplay:10.37,2013-03-09 15:26:00,
2013-03-09 10:31:00,36.9,30.7,0.00,East,86,5.8,5.8,78,0.00,CLR,CLR,0.00,WeatherDisplay:10.37,2013-03-09 15:31:00,
2013-03-09 10:36:00,37.0,30.8,0.00,East,90,10.4,10.4,78,0.00,CLR,CLR,0.00,WeatherDisplay:10.37,2013-03-09 15:36:00,
2013-03-09 10:41:00,37.1,30.9,0.00,NE,45,9.2,9.2,78,0.00,CLR,CLR,0.00,WeatherDisplay:10.37,2013-03-09 15:41:00,
2013-03-09 10:47:00,37.2,31.0,0.00,NE,44,5.8,5.8,78,0.00,CLR,CLR,0.00,WeatherDisplay:10.37,2013-03-09 15:47:00,
2013-03-09 10:52:00,37.3,31.1,0.00,ENE,58,6.9,6.9,78,0.00,CLR,CLR,0.00,WeatherDisplay:10.37,2013-03-09 15:52:00,
2013-03-09 10:57:00,37.6,31.4,0.00,NNE,32,8.1,8.1,78,0.00,CLR,CLR,0.00,WeatherDisplay:10.37,2013-03-09 15:57:00,
2013-03-09 11:02:00,37.7,31.1,0.00,ESE,102,5.8,5.8,77,0.00,CLR,CLR,0.00,WeatherDisplay:10.37,2013-03-09 16:02:00,
2013-03-09 11:07:00,37.7,30.8,0.00,NNE,18,9.2,9.2,76,0.00,CLR,CLR,0.00,WeatherDisplay:10.37,2013-03-09 16:07:00,
2013-03-09 11:12:00,37.9,31.0,0.00,North,6,9.2,9.2,76,0.00,CLR,CLR,0.00,WeatherDisplay:10.37,2013-03-09 16:12:00,
2013-03-09 11:17:00,38.0,31.1,0.00,NNE,16,8.1,8.1,76,0.00,CLR,CLR,0.00,WeatherDisplay:10.37,2013-03-09 16:17:00,
2013-03-09 11:22:00,38.1,31.2,0.00,NNE,18,8.1,8.1,76,0.00,CLR,CLR,0.00,WeatherDisplay:10.37,2013-03-09 16:22:00,
2013-03-09 11:28:00,38.2,31.0,0.00,North,360,10.4,10.4,75,0.00,CLR,CLR,0.00,WeatherDisplay:10.37,2013-03-09 16:28:00,
2013-03-09 11:33:00,38.3,31.1,0.00,NE,41,10.4,10.4,75,0.00,CLR,CLR,0.00,WeatherDisplay:10.37,2013-03-09 16:33:00,
2013-03-09 11:38:00,38.4,31.2,0.00,NNE,28,6.5,6.5,75,0.00,CLR,CLR,0.00,WeatherDisplay:10.37,2013-03-09 16:38:00,
2013-03-09 11:43:00,38.5,31.3,0.00,NNE,28,9.2,9.2,75,0.00,CLR,CLR,0.00,WeatherDisplay:10.37,2013-03-09 16:43:00,
2013-03-09 11:48:00,38.6,31.4,0.00,NNE,30,8.1,8.1,75,0.00,CLR,CLR,0.00,WeatherDisplay:10.37,2013-03-09 16:48:00,
2013-03-09 11:53:00,38.7,31.1,0.00,NNE,13,8.1,8.1,74,0.00,CLR,CLR,0.00,WeatherDisplay:10.37,2013-03-09 16:53:00,
2013-03-09 11:58:00,38.9,31.3,0.00,NE,54,9.0,9.0,74,0.00,CLR,CLR,0.00,WeatherDisplay:10.37,2013-03-09 16:58:00,
2013-03-09 12:04:00,39.1,31.5,0.00,NE,40,6.0,6.0,74,0.00,CLR,CLR,0.00,WeatherDisplay:10.37,2013-03-09 17:04:00,
2013-03-09 12:09:00,39.2,31.6,0.00,NNE,25,5.8,5.8,74,0.00,CLR,CLR,0.00,WeatherDisplay:10.37,2013-03-09 17:09:00,
2013-03-09 12:14:00,39.4,31.5,0.00,NNE,23,5.8,5.8,73,0.00,CLR,CLR,0.00,WeatherDisplay:10.37,2013-03-09 17:14:00,
2013-03-09 12:19:00,39.4,31.5,0.00,NW,326,9.2,9.2,73,0.00,CLR,CLR,0.00,WeatherDisplay:10.37,2013-03-09 17:19:00,
2013-03-09 12:24:00,39.5,31.9,0.00,NNE,25,6.9,6.9,74,0.00,CLR,CLR,0.00,WeatherDisplay:10.37,2013-03-09 17:24:00,
2013-03-09 12:29:00,39.6,31.7,0.00,NW,318,6.5,6.5,73,0.00,CLR,CLR,0.00,WeatherDisplay:10.37,2013-03-09 17:29:00,
2013-03-09 12:34:00,39.6,31.7,0.00,WNW,294,6.9,6.9,73,0.00,CLR,CLR,0.00,WeatherDisplay:10.37,2013-03-09 17:34:00,
2013-03-09 12:39:00,39.8,31.5,0.00,North,356,6.9,6.9,72,0.00,CLR,CLR,0.00,WeatherDisplay:10.37,2013-03-09 17:39:00,
2013-03-09 12:45:00,40.0,31.7,0.00,ENE,64,6.9,6.9,72,0.00,CLR,CLR,0.00,WeatherDisplay:10.37,2013-03-09 17:45:00,
2013-03-09 12:50:00,40.1,31.8,0.00,ESE,112,5.8,5.8,72,0.00,CLR,CLR,0.00,WeatherDisplay:10.37,2013-03-09 17:50:00,
2013-03-09 12:55:00,40.3,32.0,0.00,North,350,3.5,3.5,72,0.00,CLR,CLR,0.00,WeatherDisplay:10.37,2013-03-09 17:55:00,
2013-03-09 13:00:00,40.3,32.0,0.00,NNE,31,4.6,4.6,72,0.00,CLR,CLR,0.00,WeatherDisplay:10.37,2013-03-09 18:00:00,
2013-03-09 13:05:00,40.4,32.1,0.00,WNW,295,5.8,5.8,72,0.00,CLR,CLR,0.00,WeatherDisplay:10.37,2013-03-09 18:05:00,
2013-03-09 13:10:00,40.6,31.9,0.00,West,280,4.6,4.6,71,0.00,CLR,CLR,0.00,WeatherDisplay:10.37,2013-03-09 18:10:00,
2013-03-09 13:16:00,40.7,32.0,0.00,NNE,30,6.1,6.1,71,0.00,CLR,CLR,0.00,WeatherDisplay:10.37,2013-03-09 18:16:00,
2013-03-09 13:21:00,40.8,32.1,0.00,NNE,14,3.6,3.6,71,0.00,CLR,CLR,0.00,WeatherDisplay:10.37,2013-03-09 18:21:00,
2013-03-09 13:26:00,40.8,32.1,0.00,NNE,28,4.6,4.6,71,0.00,CLR,CLR,0.00,WeatherDisplay:10.37,2013-03-09 18:26:00,
2013-03-09 13:31:00,41.0,32.3,0.00,NE,42,4.6,4.6,71,0.00,CLR,CLR,0.00,WeatherDisplay:10.37,2013-03-09 18:31:00,
2013-03-09 13:36:00,41.1,32.4,0.00,NE,38,6.9,6.9,71,0.00,CLR,CLR,0.00,WeatherDisplay:10.37,2013-03-09 18:36:00,
2013-03-09 13:41:00,41.3,32.6,0.00,NE,48,4.6,4.6,71,0.00,CLR,CLR,0.00,WeatherDisplay:10.37,2013-03-09 18:41:00,
2013-03-09 13:47:00,41.4,33.0,0.00,NNE,32,3.5,3.5,72,0.00,CLR,CLR,0.00,WeatherDisplay:10.37,2013-03-09 18:47:00,
2013-03-09 13:52:00,41.3,33.0,0.00,NE,34,1.2,1.2,72,0.00,CLR,CLR,0.00,WeatherDisplay:10.37,2013-03-09 18:52:00,
2013-03-09 13:57:00,41.4,32.7,0.00,NE,37,4.6,4.6,71,0.00,CLR,CLR,0.00,WeatherDisplay:10.37,2013-03-09 18:57:00,
2013-03-09 14:02:00,41.6,32.5,0.00,NNE,24,4.6,4.6,70,0.00,CLR,CLR,0.00,WeatherDisplay:10.37,2013-03-09 19:02:00,
2013-03-09 14:07:00,41.7,32.6,0.00,NE,56,5.8,5.8,70,0.00,CLR,CLR,0.00,WeatherDisplay:10.37,2013-03-09 19:07:00,
2013-03-09 14:12:00,41.8,32.7,0.00,ENE,64,6.4,6.4,70,0.00,CLR,CLR,0.00,WeatherDisplay:10.37,2013-03-09 19:12:00,
2013-03-09 14:17:00,42.0,32.9,0.00,NNE,28,4.6,4.6,70,0.00,CLR,CLR,0.00,WeatherDisplay:10.37,2013-03-09 19:17:00,
2013-03-09 14:23:00,42.1,33.0,0.00,NE,41,5.8,5.8,70,0.00,CLR,CLR,0.00,WeatherDisplay:10.37,2013-03-09 19:23:00,
2013-03-09 14:28:00,42.1,32.7,0.00,NE,54,5.8,5.8,69,0.00,CLR,CLR,0.00,WeatherDisplay:10.37,2013-03-09 19:28:00,
2013-03-09 14:33:00,42.2,33.1,0.00,ENE,76,4.6,4.6,70,0.00,CLR,CLR,0.00,WeatherDisplay:10.37,2013-03-09 19:33:00,
2013-03-09 14:38:00,42.3,32.8,0.00,NE,40,3.5,3.5,69,0.00,CLR,CLR,0.00,WeatherDisplay:10.37,2013-03-09 19:38:00,
2013-03-09 14:43:00,42.4,32.9,0.00,NNE,25,5.8,5.8,69,0.00,CLR,CLR,0.00,WeatherDisplay:10.37,2013-03-09 19:43:00,
2013-03-09 14:48:00,42.5,33.0,0.00,NE,45,6.9,6.9,69,0.00,CLR,CLR,0.00,WeatherDisplay:10.37,2013-03-09 19:48:00,
2013-03-09 14:53:00,42.6,33.1,0.00,ENE,58,4.8,4.8,69,0.00,CLR,CLR,0.00,WeatherDisplay:10.37,2013-03-09 19:53:00,
2013-03-09 14:59:00,42.7,33.2,0.00,NE,47,4.6,4.6,69,0.00,CLR,CLR,0.00,WeatherDisplay:10.37,2013-03-09 19:59:00,
2013-03-09 15:04:00,42.8,33.3,0.00,NE,37,3.5,3.5,69,0.00,CLR,CLR,0.00,WeatherDisplay:10.37,2013-03-09 20:04:00,
2013-03-09 15:09:00,42.9,33.4,0.00,NE,41,2.3,2.3,69,0.00,CLR,CLR,0.00,WeatherDisplay:10.37,2013-03-09 20:09:00,
2013-03-09 15:14:00,43.0,33.2,0.00,NNE,32,5.8,5.8,68,0.00,CLR,CLR,0.00,WeatherDisplay:10.37,2013-03-09 20:14:00,
2013-03-09 15:19:00,43.1,33.6,0.00,NNE,32,3.5,3.5,69,0.00,CLR,CLR,0.00,WeatherDisplay:10.37,2013-03-09 20:19:00,
2013-03-09 15:24:00,43.3,34.5,0.00,East,82,6.9,6.9,71,0.00,CLR,CLR,0.00,WeatherDisplay:10.37,2013-03-09 20:24:00,
2013-03-09 15:30:00,43.4,35.3,0.00,NNE,25,6.9,6.9,73,0.00,CLR,CLR,0.00,WeatherDisplay:10.37,2013-03-09 20:30:00,
2013-03-09 15:35:00,43.5,36.1,0.00,SE,138,3.5,3.5,75,0.00,CLR,CLR,0.00,WeatherDisplay:10.37,2013-03-09 20:35:00,
2013-03-09 15:40:00,43.4,36.3,0.00,NE,51,4.6,4.6,76,0.00,CLR,CLR,0.00,WeatherDisplay:10.37,2013-03-09 20:40:00,
2013-03-09 15:45:00,43.3,36.2,0.00,NNE,32,4.6,4.6,76,0.00,CLR,CLR,0.00,WeatherDisplay:10.37,2013-03-09 20:45:00,
2013-03-09 15:50:00,43.2,36.5,0.00,NE,35,4.6,4.6,77,0.00,CLR,CLR,0.00,WeatherDisplay:10.37,2013-03-09 20:50:00,
2013-03-09 15:55:00,43.3,36.6,0.00,East,95,4.6,4.6,77,0.00,CLR,CLR,0.00,WeatherDisplay:10.37,2013-03-09 20:55:00,
2013-03-09 16:01:00,43.1,36.7,0.00,NE,56,6.2,6.2,78,0.00,CLR,CLR,0.00,WeatherDisplay:10.37,2013-03-09 21:01:00,
2013-03-09 16:06:00,43.2,36.8,0.00,NNE,31,2.3,2.3,78,0.00,CLR,CLR,0.00,WeatherDisplay:10.37,2013-03-09 21:06:00,
2013-03-09 16:11:00,43.0,36.9,0.00,NE,49,4.6,4.6,79,0.00,CLR,CLR,0.00,WeatherDisplay:10.37,2013-03-09 21:11:00,
2013-03-09 16:16:00,42.9,36.8,0.00,ENE,66,3.5,3.5,79,0.00,CLR,CLR,0.00,WeatherDisplay:10.37,2013-03-09 21:16:00,
2013-03-09 16:21:00,42.8,37.1,0.00,ENE,65,5.8,5.8,80,0.00,CLR,CLR,0.00,WeatherDisplay:10.37,2013-03-09 21:21:00,
2013-03-09 16:26:00,42.7,37.0,0.00,ENE,68,6.9,6.9,80,0.00,CLR,CLR,0.00,WeatherDisplay:10.37,2013-03-09 21:26:00,
2013-03-09 16:31:00,42.5,37.1,0.00,North,3,6.9,6.9,81,0.00,CLR,CLR,0.00,WeatherDisplay:10.37,2013-03-09 21:31:00,
2013-03-09 16:37:00,42.5,37.1,0.00,ENE,78,6.3,6.3,81,0.00,CLR,CLR,0.00,WeatherDisplay:10.37,2013-03-09 21:37:00,
2013-03-09 16:42:00,42.3,36.9,0.00,NE,54,6.9,6.9,81,0.00,CLR,CLR,0.00,WeatherDisplay:10.37,2013-03-09 21:42:00,
2013-03-09 16:47:00,42.2,37.1,0.00,NE,42,5.8,5.8,82,0.00,CLR,CLR,0.00,WeatherDisplay:10.37,2013-03-09 21:47:00,
2013-03-09 16:52:00,42.0,36.9,0.00,ENE,65,8.1,8.1,82,0.00,CLR,CLR,0.00,WeatherDisplay:10.37,2013-03-09 21:52:00,
2013-03-09 16:57:00,41.8,36.7,0.00,NW,305,3.5,3.5,82,0.00,CLR,CLR,0.00,WeatherDisplay:10.37,2013-03-09 21:57:00,
2013-03-09 17:02:00,41.8,37.0,0.00,ENE,72,3.5,3.5,83,0.00,CLR,CLR,0.00,WeatherDisplay:10.37,2013-03-09 22:02:00,
2013-03-09 17:07:00,41.7,36.9,0.00,SE,138,4.6,4.6,83,0.00,CLR,CLR,0.00,WeatherDisplay:10.37,2013-03-09 22:07:00,
2013-03-09 17:12:00,41.6,37.1,0.00,ESE,121,2.3,2.3,84,0.00,CLR,CLR,0.00,WeatherDisplay:10.37,2013-03-09 22:12:00,
2013-03-09 17:17:00,41.4,36.9,0.00,East,96,3.5,3.5,84,0.00,CLR,CLR,0.00,WeatherDisplay:10.37,2013-03-09 22:17:00,
2013-03-09 17:23:00,41.2,36.7,0.00,East,83,3.5,3.5,84,0.00,CLR,CLR,0.00,WeatherDisplay:10.37,2013-03-09 22:23:00,
2013-03-09 17:28:00,41.1,36.9,0.00,ENE,65,3.5,3.5,85,0.00,CLR,CLR,0.00,WeatherDisplay:10.37,2013-03-09 22:28:00,
2013-03-09 17:33:00,40.9,36.7,0.00,East,89,1.9,0.0,85,0.00,CLR,CLR,0.00,WeatherDisplay:10.37,2013-03-09 22:33:00,
2013-03-09 17:38:00,40.7,36.8,0.00,NE,56,0.0,0.0,86,0.00,CLR,CLR,0.00,WeatherDisplay:10.37,2013-03-09 22:38:00,
2013-03-09 17:43:00,40.5,36.6,0.00,NE,52,8.1,8.1,86,0.00,CLR,CLR,0.00,WeatherDisplay:10.37,2013-03-09 22:43:00,
2013-03-09 17:48:00,40.2,36.3,0.00,NE,54,3.5,3.5,86,0.00,CLR,CLR,0.00,WeatherDisplay:10.37,2013-03-09 22:48:00,
2013-03-09 17:54:00,39.9,36.3,0.00,NNE,21,2.3,2.3,87,0.00,CLR,CLR,0.00,WeatherDisplay:10.37,2013-03-09 22:54:00,
2013-03-09 17:59:00,39.6,36.0,0.00,NE,47,3.5,3.5,87,0.00,CLR,CLR,0.00,WeatherDisplay:10.37,2013-03-09 22:59:00,
2013-03-09 18:04:00,39.6,36.3,0.00,NE,54,2.3,2.3,88,0.00,CLR,CLR,0.00,WeatherDisplay:10.37,2013-03-09 23:04:00,
2013-03-09 18:09:00,39.4,36.1,0.00,NNE,21,2.6,2.6,88,0.00,CLR,CLR,0.00,WeatherDisplay:10.37,2013-03-09 23:09:00,
2013-03-09 18:15:00,39.2,35.9,0.00,North,4,0.7,0.7,88,0.00,CLR,CLR,0.00,WeatherDisplay:10.37,2013-03-09 23:15:00,
2013-03-09 18:20:00,39.0,36.0,0.00,NE,51,2.3,2.3,89,0.00,CLR,CLR,0.00,WeatherDisplay:10.37,2013-03-09 23:20:00,
2013-03-09 18:25:00,38.9,35.9,0.00,NE,47,1.5,1.5,89,0.00,CLR,CLR,0.00,WeatherDisplay:10.37,2013-03-09 23:25:00,
2013-03-09 18:30:00,38.7,35.7,0.00,ENE,71,3.5,3.5,89,0.00,CLR,CLR,0.00,WeatherDisplay:10.37,2013-03-09 23:30:00,
2013-03-09 18:35:00,38.5,35.8,0.00,ENE,78,4.6,4.6,90,0.00,CLR,CLR,0.00,WeatherDisplay:10.37,2013-03-09 23:35:00,
2013-03-09 18:40:00,38.2,35.5,0.00,NE,54,4.6,4.6,90,0.00,CLR,CLR,0.00,WeatherDisplay:10.37,2013-03-09 23:40:00,
2013-03-09 18:45:00,38.0,35.3,0.00,NNE,28,2.3,2.3,90,0.00,CLR,CLR,0.00,WeatherDisplay:10.37,2013-03-09 23:45:00,
2013-03-09 18:50:00,37.8,35.4,0.00,NE,43,3.5,3.5,91,0.00,CLR,CLR,0.00,WeatherDisplay:10.37,2013-03-09 23:50:00,
2013-03-09 18:56:00,37.7,35.3,0.00,NE,44,0.0,0.0,91,0.00,CLR,CLR,0.00,WeatherDisplay:10.37,2013-03-09 23:56:00,
2013-03-09 19:01:00,37.6,35.2,0.00,NE,44,0.0,0.0,91,0.00,CLR,CLR,0.00,WeatherDisplay:10.37,2013-03-10 00:01:00,
2013-03-09 19:06:00,37.5,35.4,0.00,NE,44,0.0,0.0,92,0.00,CLR,CLR,0.00,WeatherDisplay:10.37,2013-03-10 00:06:00,
2013-03-09 19:11:00,37.4,35.3,0.00,NE,44,0.0,0.0,92,0.00,CLR,CLR,0.00,WeatherDisplay:10.37,2013-03-10 00:11:00,
2013-03-09 19:16:00,37.4,35.3,0.00,NE,44,0.0,0.0,92,0.00,CLR,CLR,0.00,WeatherDisplay:10.37,2013-03-10 00:16:00,
2013-03-09 19:21:00,37.3,35.2,0.00,NE,44,0.0,0.0,92,0.00,CLR,CLR,0.00,WeatherDisplay:10.37,2013-03-10 00:21:00,
2013-03-09 19:27:00,37.1,35.0,0.00,NE,44,0.0,0.0,92,0.00,CLR,CLR,0.00,WeatherDisplay:10.37,2013-03-10 00:27:00,
2013-03-09 19:32:00,37.0,35.2,0.00,NE,44,0.0,0.0,93,0.00,CLR,CLR,0.00,WeatherDisplay:10.37,2013-03-10 00:32:00,
2013-03-09 19:37:00,36.9,35.1,0.00,NE,44,0.0,0.0,93,0.00,CLR,CLR,0.00,WeatherDisplay:10.37,2013-03-10 00:37:00,
2013-03-09 19:42:00,36.8,34.7,0.00,WSW,240,2.3,2.3,92,0.00,CLR,CLR,0.00,WeatherDisplay:10.37,2013-03-10 00:42:00,
2013-03-09 19:47:00,36.7,34.9,0.00,WSW,244,0.0,0.0,93,0.00,CLR,CLR,0.00,WeatherDisplay:10.37,2013-03-10 00:47:00,
2013-03-09 19:53:00,36.5,34.7,0.00,WSW,244,0.0,0.0,93,0.00,CLR,CLR,0.00,WeatherDisplay:10.37,2013-03-10 00:53:00,
2013-03-09 19:58:00,36.4,34.8,0.00,WSW,244,0.0,0.0,94,0.00,CLR,CLR,0.00,WeatherDisplay:10.37,2013-03-10 00:58:00,
2013-03-09 20:03:00,36.2,34.6,0.00,WSW,244,0.0,0.0,94,0.00,CLR,CLR,0.00,WeatherDisplay:10.37,2013-03-10 01:03:00,
2013-03-09 20:08:00,36.1,34.5,0.00,WSW,244,0.0,0.0,94,0.00,CLR,CLR,0.00,WeatherDisplay:10.37,2013-03-10 01:08:00,
2013-03-09 20:13:00,35.9,34.3,0.00,WSW,244,0.0,0.0,94,0.00,CLR,CLR,0.00,WeatherDisplay:10.37,2013-03-10 01:13:00,
2013-03-09 20:19:00,35.8,34.2,0.00,WSW,244,0.0,0.0,94,0.00,CLR,CLR,0.00,WeatherDisplay:10.37,2013-03-10 01:19:00,
2013-03-09 20:24:00,35.7,34.4,0.00,WSW,244,0.0,0.0,95,0.00,CLR,CLR,0.00,WeatherDisplay:10.37,2013-03-10 01:24:00,
2013-03-09 20:29:00,35.6,34.3,0.00,WSW,244,0.0,0.0,95,0.00,CLR,CLR,0.00,WeatherDisplay:10.37,2013-03-10 01:29:00,
2013-03-09 20:35:00,35.5,34.2,0.00,WSW,244,0.0,0.0,95,0.00,CLR,CLR,0.00,WeatherDisplay:10.37,2013-03-10 01:35:00,
2013-03-09 20:40:00,35.3,34.0,0.00,WSW,244,0.0,0.0,95,0.00,CLR,CLR,0.00,WeatherDisplay:10.37,2013-03-10 01:40:00,
2013-03-09 20:45:00,35.2,33.9,0.00,WSW,244,0.0,0.0,95,0.00,CLR,CLR,0.00,WeatherDisplay:10.37,2013-03-10 01:45:00,
2013-03-09 20:50:00,35.1,33.8,0.00,WSW,244,0.0,0.0,95,0.00,CLR,CLR,0.00,WeatherDisplay:10.37,2013-03-10 01:50:00,
2013-03-09 20:56:00,34.9,33.6,0.00,WSW,244,0.0,0.0,95,0.00,CLR,CLR,0.00,WeatherDisplay:10.37,2013-03-10 01:56:00,
2013-03-09 21:01:00,34.9,33.9,0.00,WSW,244,0.0,0.0,96,0.00,CLR,CLR,0.00,WeatherDisplay:10.37,2013-03-10 02:01:00,
2013-03-09 21:06:00,34.8,33.8,0.00,WSW,244,0.0,0.0,96,0.00,CLR,CLR,0.00,WeatherDisplay:10.37,2013-03-10 02:06:00,
2013-03-09 21:11:00,34.7,33.7,0.00,WSW,244,0.0,0.0,96,0.00,CLR,CLR,0.00,WeatherDisplay:10.37,2013-03-10 02:11:00,
2013-03-09 21:16:00,34.5,33.5,0.00,WSW,244,0.0,0.0,96,0.00,CLR,CLR,0.00,WeatherDisplay:10.37,2013-03-10 02:16:00,
2013-03-09 21:22:00,34.4,33.4,0.00,WSW,244,0.0,0.0,96,0.00,CLR,CLR,0.00,WeatherDisplay:10.37,2013-03-10 02:22:00,
2013-03-09 21:27:00,34.3,33.3,0.00,WSW,244,0.0,0.0,96,0.00,CLR,CLR,0.00,WeatherDisplay:10.37,2013-03-10 02:27:00,
2013-03-09 21:32:00,34.2,33.2,0.00,WSW,244,0.0,0.0,96,0.00,CLR,CLR,0.00,WeatherDisplay:10.37,2013-03-10 02:32:00,
2013-03-09 21:37:00,34.1,33.1,0.00,WSW,244,0.0,0.0,96,0.00,CLR,CLR,0.00,WeatherDisplay:10.37,2013-03-10 02:37:00,
2013-03-09 21:43:00,34.1,33.1,0.00,WSW,244,0.0,0.0,96,0.00,CLR,CLR,0.00,WeatherDisplay:10.37,2013-03-10 02:43:00,
2013-03-09 21:48:00,34.0,33.0,0.00,WSW,244,0.0,0.0,96,0.00,CLR,CLR,0.00,WeatherDisplay:10.37,2013-03-10 02:48:00,
2013-03-09 21:53:00,33.9,32.9,0.00,WSW,244,0.0,0.0,96,0.00,CLR,CLR,0.00,WeatherDisplay:10.37,2013-03-10 02:53:00,
2013-03-09 21:58:00,33.8,32.8,0.00,WSW,244,0.0,0.0,96,0.00,CLR,CLR,0.00,WeatherDisplay:10.37,2013-03-10 02:58:00,
2013-03-09 22:03:00,33.7,32.7,0.00,WSW,244,0.0,0.0,96,0.00,CLR,CLR,0.00,WeatherDisplay:10.37,2013-03-10 03:03:00,
2013-03-09 22:08:00,33.7,32.7,0.00,WSW,244,0.0,0.0,96,0.00,CLR,CLR,0.00,WeatherDisplay:10.37,2013-03-10 03:08:00,
2013-03-09 22:13:00,33.6,32.6,0.00,WSW,244,0.0,0.0,96,0.00,CLR,CLR,0.00,WeatherDisplay:10.37,2013-03-10 03:13:00,
2013-03-09 22:19:00,33.5,32.5,0.00,WSW,244,0.0,0.0,96,0.00,CLR,CLR,0.00,WeatherDisplay:10.37,2013-03-10 03:19:00,
2013-03-09 22:24:00,33.4,32.4,0.00,WSW,244,0.0,0.0,96,0.00,CLR,CLR,0.00,WeatherDisplay:10.37,2013-03-10 03:24:00,
2013-03-09 22:29:00,33.3,32.5,0.00,WSW,244,0.0,0.0,97,0.00,CLR,CLR,0.00,WeatherDisplay:10.37,2013-03-10 03:29:00,
2013-03-09 22:34:00,33.2,32.2,0.00,WSW,244,0.0,0.0,96,0.00,CLR,CLR,0.00,WeatherDisplay:10.37,2013-03-10 03:34:00,
2013-03-09 22:39:00,33.1,32.3,0.00,WSW,244,0.0,0.0,97,0.00,CLR,CLR,0.00,WeatherDisplay:10.37,2013-03-10 03:39:00,
2013-03-09 22:44:00,33.2,32.4,0.00,WSW,244,0.0,0.0,97,0.00,CLR,CLR,0.00,WeatherDisplay:10.37,2013-03-10 03:44:00,
2013-03-09 22:49:00,33.1,32.3,0.00,WSW,244,0.0,0.0,97,0.00,CLR,CLR,0.00,WeatherDisplay:10.37,2013-03-10 03:49:00,
2013-03-09 22:55:00,33.0,32.2,0.00,WSW,244,0.0,0.0,97,0.00,CLR,CLR,0.00,WeatherDisplay:10.37,2013-03-10 03:55:00,
2013-03-09 23:00:00,32.9,32.1,0.00,SSW,212,1.2,1.2,97,0.00,CLR,CLR,0.00,WeatherDisplay:10.37,2013-03-10 04:00:00,
2013-03-09 23:05:00,32.8,32.0,0.00,SSW,212,0.0,0.0,97,0.00,CLR,CLR,0.00,WeatherDisplay:10.37,2013-03-10 04:05:00,
2013-03-09 23:10:00,32.7,31.9,0.00,SW,230,2.3,2.3,97,0.00,CLR,CLR,0.00,WeatherDisplay:10.37,2013-03-10 04:10:00,
2013-03-09 23:15:00,32.6,31.8,0.00,SW,219,0.0,2.0,97,0.00,CLR,CLR,0.00,WeatherDisplay:10.37,2013-03-10 04:15:00,
2013-03-09 23:21:00,32.5,31.7,0.00,SW,224,0.0,0.0,97,0.00,CLR,CLR,0.00,WeatherDisplay:10.37,2013-03-10 04:21:00,
2013-03-09 23:26:00,32.4,31.6,0.00,SW,224,0.0,0.0,97,0.00,CLR,CLR,0.00,WeatherDisplay:10.37,2013-03-10 04:26:00,
2013-03-09 23:31:00,32.3,31.5,0.00,SW,224,0.0,0.0,97,0.00,CLR,CLR,0.00,WeatherDisplay:10.37,2013-03-10 04:31:00,
2013-03-09 23:36:00,32.3,31.5,0.00,SW,224,0.0,0.0,97,0.00,CLR,CLR,0.00,WeatherDisplay:10.37,2013-03-10 04:36:00,
2013-03-09 23:41:00,32.2,31.4,0.00,SW,224,0.0,0.0,97,0.00,CLR,CLR,0.00,WeatherDisplay:10.37,2013-03-10 04:41:00,
2013-03-09 23:47:00,32.2,31.4,0.00,SW,224,0.0,0.0,97,0.00,CLR,CLR,0.00,WeatherDisplay:10.37,2013-03-10 04:47:00,
2013-03-09 23:52:00,32.1,31.6,0.00,SW,224,0.0,0.0,98,0.00,CLR,CLR,0.00,WeatherDisplay:10.37,2013-03-10 04:52:00,
2013-03-09 23:57:00,32.0,31.5,0.00,SW,224,0.0,0.0,98,0.00,CLR,CLR,0.00,WeatherDisplay:10.37,2013-03-10 04:57:00,